sensor_id;sensor_type;location;lat;lon;timestamp;temperature;humidity
23562;DHT22;11959;49.418;8.728;2023-04-01T00:01:30;10.60;99.90
23562;DHT22;11959;49.418;8.728;2023-04-01T00:03:56;10.70;99.90
23562;DHT22;11959;49.418;8.728;2023-04-01T00:06:22;10.60;99.90
23562;DHT22;11959;49.418;8.728;2023-04-01T00:08:49;10.70;99.90
23562;DHT22;11959;49.418;8.728;2023-04-01T00:11:15;10.60;99.90
23562;DHT22;11959;49.418;8.728;2023-04-01T00:13:41;10.70;99.90
23562;DHT22;11959;49.418;8.728;2023-04-01T00:16:07;10.60;99.90
23562;DHT22;11959;49.418;8.728;2023-04-01T00:18:33;10.60;99.90
23562;DHT22;11959;49.418;8.728;2023-04-01T00:20:59;10.60;99.90
23562;DHT22;11959;49.418;8.728;2023-04-01T00:23:24;10.60;99.90
23562;DHT22;11959;49.418;8.728;2023-04-01T00:25:50;10.60;99.90
23562;DHT22;11959;49.418;8.728;2023-04-01T00:28:18;10.60;99.90
23562;DHT22;11959;49.418;8.728;2023-04-01T00:30:44;10.60;99.90
23562;DHT22;11959;49.418;8.728;2023-04-01T00:33:10;10.60;99.90
23562;DHT22;11959;49.418;8.728;2023-04-01T00:35:36;10.60;99.90
23562;DHT22;11959;49.418;8.728;2023-04-01T00:38:02;10.60;99.90
23562;DHT22;11959;49.418;8.728;2023-04-01T00:40:34;10.60;99.90
23562;DHT22;11959;49.418;8.728;2023-04-01T00:43:00;10.60;99.90
23562;DHT22;11959;49.418;8.728;2023-04-01T00:45:33;10.60;99.90
23562;DHT22;11959;49.418;8.728;2023-04-01T00:48:01;10.60;99.90
23562;DHT22;11959;49.418;8.728;2023-04-01T00:50:29;10.60;99.90
23562;DHT22;11959;49.418;8.728;2023-04-01T00:52:56;10.50;99.90
23562;DHT22;11959;49.418;8.728;2023-04-01T00:55:23;10.50;99.90
23562;DHT22;11959;49.418;8.728;2023-04-01T00:57:50;10.60;99.90
23562;DHT22;11959;49.418;8.728;2023-04-01T01:00:18;10.60;99.90
23562;DHT22;11959;49.418;8.728;2023-04-01T01:02:45;10.50;99.90
23562;DHT22;11959;49.418;8.728;2023-04-01T01:05:16;10.50;99.90
23562;DHT22;11959;49.418;8.728;2023-04-01T01:10:33;10.50;99.90
23562;DHT22;11959;49.418;8.728;2023-04-01T01:23:42;10.50;99.90
23562;DHT22;11959;49.418;8.728;2023-04-01T01:35:21;10.60;99.90
23562;DHT22;11959;49.418;8.728;2023-04-01T01:37:53;10.60;99.90
23562;DHT22;11959;49.418;8.728;2023-04-01T01:40:19;10.60;99.90
23562;DHT22;11959;49.418;8.728;2023-04-01T01:42:53;10.60;99.90
23562;DHT22;11959;49.418;8.728;2023-04-01T01:45:21;10.60;99.90
23562;DHT22;11959;49.418;8.728;2023-04-01T01:47:50;10.60;99.90
23562;DHT22;11959;49.418;8.728;2023-04-01T01:50:17;10.50;99.90
23562;DHT22;11959;49.418;8.728;2023-04-01T01:52:43;10.50;99.90
23562;DHT22;11959;49.418;8.728;2023-04-01T01:55:31;10.50;99.90
23562;DHT22;11959;49.418;8.728;2023-04-01T01:58:00;10.50;99.90
23562;DHT22;11959;49.418;8.728;2023-04-01T02:00:28;10.60;99.90
23562;DHT22;11959;49.418;8.728;2023-04-01T02:02:54;10.60;99.90
23562;DHT22;11959;49.418;8.728;2023-04-01T02:05:25;10.70;99.90
23562;DHT22;11959;49.418;8.728;2023-04-01T02:08:00;10.60;99.90
23562;DHT22;11959;49.418;8.728;2023-04-01T02:10:27;10.60;99.90
23562;DHT22;11959;49.418;8.728;2023-04-01T02:12:59;10.60;99.90
23562;DHT22;11959;49.418;8.728;2023-04-01T02:15:28;10.60;99.90
23562;DHT22;11959;49.418;8.728;2023-04-01T02:17:57;10.60;99.90
23562;DHT22;11959;49.418;8.728;2023-04-01T02:20:23;10.60;99.90
23562;DHT22;11959;49.418;8.728;2023-04-01T02:22:52;10.60;99.90
23562;DHT22;11959;49.418;8.728;2023-04-01T02:25:32;10.60;99.90
23562;DHT22;11959;49.418;8.728;2023-04-01T02:28:00;10.60;99.90
23562;DHT22;11959;49.418;8.728;2023-04-01T02:30:28;10.60;99.90
23562;DHT22;11959;49.418;8.728;2023-04-01T02:32:56;10.60;99.90
23562;DHT22;11959;49.418;8.728;2023-04-01T02:35:23;10.70;99.90
23562;DHT22;11959;49.418;8.728;2023-04-01T02:37:50;10.60;99.90
23562;DHT22;11959;49.418;8.728;2023-04-01T02:40:17;10.60;99.90
23562;DHT22;11959;49.418;8.728;2023-04-01T02:42:43;10.70;99.90
23562;DHT22;11959;49.418;8.728;2023-04-01T02:45:09;10.70;99.90
23562;DHT22;11959;49.418;8.728;2023-04-01T02:47:35;10.70;99.90
23562;DHT22;11959;49.418;8.728;2023-04-01T02:50:01;10.70;99.90
23562;DHT22;11959;49.418;8.728;2023-04-01T02:52:28;10.60;99.90
23562;DHT22;11959;49.418;8.728;2023-04-01T02:54:55;10.70;99.90
23562;DHT22;11959;49.418;8.728;2023-04-01T02:57:21;10.70;99.90
23562;DHT22;11959;49.418;8.728;2023-04-01T02:59:46;10.80;99.90
23562;DHT22;11959;49.418;8.728;2023-04-01T03:02:13;10.80;99.90
23562;DHT22;11959;49.418;8.728;2023-04-01T03:04:39;10.70;99.90
23562;DHT22;11959;49.418;8.728;2023-04-01T03:07:05;10.70;99.90
23562;DHT22;11959;49.418;8.728;2023-04-01T03:09:30;10.80;99.90
23562;DHT22;11959;49.418;8.728;2023-04-01T03:11:56;10.80;99.90
23562;DHT22;11959;49.418;8.728;2023-04-01T03:14:22;10.80;99.90
23562;DHT22;11959;49.418;8.728;2023-04-01T03:16:47;10.80;99.90
23562;DHT22;11959;49.418;8.728;2023-04-01T03:19:13;10.80;99.90
23562;DHT22;11959;49.418;8.728;2023-04-01T03:21:39;10.80;99.90
23562;DHT22;11959;49.418;8.728;2023-04-01T03:24:05;10.80;99.90
23562;DHT22;11959;49.418;8.728;2023-04-01T03:26:31;10.80;99.90
23562;DHT22;11959;49.418;8.728;2023-04-01T03:28:57;10.70;99.90
23562;DHT22;11959;49.418;8.728;2023-04-01T03:31:23;10.70;99.90
23562;DHT22;11959;49.418;8.728;2023-04-01T03:33:49;10.80;99.90
23562;DHT22;11959;49.418;8.728;2023-04-01T03:36:14;10.80;99.90
23562;DHT22;11959;49.418;8.728;2023-04-01T03:38:41;10.70;99.90
23562;DHT22;11959;49.418;8.728;2023-04-01T03:41:12;10.80;99.90
23562;DHT22;11959;49.418;8.728;2023-04-01T03:43:37;10.70;99.90
23562;DHT22;11959;49.418;8.728;2023-04-01T03:46:03;10.70;99.90
23562;DHT22;11959;49.418;8.728;2023-04-01T03:48:29;10.70;99.90
23562;DHT22;11959;49.418;8.728;2023-04-01T03:50:54;10.70;99.90
23562;DHT22;11959;49.418;8.728;2023-04-01T03:53:20;10.70;99.90
23562;DHT22;11959;49.418;8.728;2023-04-01T03:55:46;10.70;99.90
23562;DHT22;11959;49.418;8.728;2023-04-01T03:58:12;10.70;99.90
23562;DHT22;11959;49.418;8.728;2023-04-01T04:00:37;10.70;99.90
23562;DHT22;11959;49.418;8.728;2023-04-01T04:03:03;10.60;99.90
23562;DHT22;11959;49.418;8.728;2023-04-01T04:05:29;10.60;99.90
23562;DHT22;11959;49.418;8.728;2023-04-01T04:07:54;10.50;99.90
23562;DHT22;11959;49.418;8.728;2023-04-01T04:10:21;10.50;99.90
23562;DHT22;11959;49.418;8.728;2023-04-01T04:12:49;10.50;99.90
23562;DHT22;11959;49.418;8.728;2023-04-01T04:15:15;10.40;99.90
23562;DHT22;11959;49.418;8.728;2023-04-01T04:17:41;10.50;99.90
23562;DHT22;11959;49.418;8.728;2023-04-01T04:20:07;10.40;99.90
23562;DHT22;11959;49.418;8.728;2023-04-01T04:22:33;10.40;99.90
23562;DHT22;11959;49.418;8.728;2023-04-01T04:24:59;10.40;99.90
23562;DHT22;11959;49.418;8.728;2023-04-01T04:27:25;10.40;99.90
23562;DHT22;11959;49.418;8.728;2023-04-01T04:29:51;10.30;99.90
23562;DHT22;11959;49.418;8.728;2023-04-01T04:32:16;10.30;99.90
23562;DHT22;11959;49.418;8.728;2023-04-01T04:34:42;10.30;99.90
23562;DHT22;11959;49.418;8.728;2023-04-01T04:37:08;10.30;99.90
23562;DHT22;11959;49.418;8.728;2023-04-01T04:39:33;10.30;99.90
23562;DHT22;11959;49.418;8.728;2023-04-01T04:41:59;10.20;99.90
23562;DHT22;11959;49.418;8.728;2023-04-01T04:44:24;10.20;99.90
23562;DHT22;11959;49.418;8.728;2023-04-01T04:46:50;10.20;99.90
23562;DHT22;11959;49.418;8.728;2023-04-01T04:49:16;10.20;99.90
23562;DHT22;11959;49.418;8.728;2023-04-01T04:51:42;10.20;99.90
23562;DHT22;11959;49.418;8.728;2023-04-01T04:54:08;10.20;99.90
23562;DHT22;11959;49.418;8.728;2023-04-01T04:56:34;10.10;99.90
23562;DHT22;11959;49.418;8.728;2023-04-01T04:59:01;10.10;99.90
23562;DHT22;11959;49.418;8.728;2023-04-01T05:01:27;10.20;99.90
23562;DHT22;11959;49.418;8.728;2023-04-01T05:03:53;10.10;99.90
23562;DHT22;11959;49.418;8.728;2023-04-01T05:06:19;10.10;99.90
23562;DHT22;11959;49.418;8.728;2023-04-01T05:08:45;10.00;99.90
23562;DHT22;11959;49.418;8.728;2023-04-01T05:11:13;10.00;99.90
23562;DHT22;11959;49.418;8.728;2023-04-01T05:13:39;10.00;99.90
23562;DHT22;11959;49.418;8.728;2023-04-01T05:16:12;10.00;99.90
23562;DHT22;11959;49.418;8.728;2023-04-01T05:18:38;10.00;99.90
23562;DHT22;11959;49.418;8.728;2023-04-01T05:21:04;10.00;99.90
23562;DHT22;11959;49.418;8.728;2023-04-01T05:23:32;10.10;99.90
23562;DHT22;11959;49.418;8.728;2023-04-01T05:25:58;10.10;99.90
23562;DHT22;11959;49.418;8.728;2023-04-01T05:28:24;10.10;99.90
23562;DHT22;11959;49.418;8.728;2023-04-01T05:30:50;10.10;99.90
23562;DHT22;11959;49.418;8.728;2023-04-01T05:33:16;10.10;99.90
23562;DHT22;11959;49.418;8.728;2023-04-01T05:35:42;10.10;99.90
23562;DHT22;11959;49.418;8.728;2023-04-01T05:38:07;10.10;99.90
23562;DHT22;11959;49.418;8.728;2023-04-01T05:40:34;10.20;99.90
23562;DHT22;11959;49.418;8.728;2023-04-01T05:43:00;10.20;99.90
23562;DHT22;11959;49.418;8.728;2023-04-01T05:45:26;10.20;99.90
23562;DHT22;11959;49.418;8.728;2023-04-01T05:47:52;10.20;99.90
23562;DHT22;11959;49.418;8.728;2023-04-01T05:50:18;10.20;99.90
23562;DHT22;11959;49.418;8.728;2023-04-01T05:52:44;10.20;99.90
23562;DHT22;11959;49.418;8.728;2023-04-01T05:55:10;10.30;99.90
23562;DHT22;11959;49.418;8.728;2023-04-01T05:57:36;10.30;99.90
23562;DHT22;11959;49.418;8.728;2023-04-01T06:00:02;10.20;99.90
23562;DHT22;11959;49.418;8.728;2023-04-01T06:02:28;10.30;99.90
23562;DHT22;11959;49.418;8.728;2023-04-01T06:05:12;10.30;99.90
23562;DHT22;11959;49.418;8.728;2023-04-01T06:07:38;10.30;99.90
23562;DHT22;11959;49.418;8.728;2023-04-01T06:10:20;10.30;99.90
23562;DHT22;11959;49.418;8.728;2023-04-01T06:12:52;10.30;99.90
23562;DHT22;11959;49.418;8.728;2023-04-01T06:15:43;10.30;99.90
23562;DHT22;11959;49.418;8.728;2023-04-01T06:18:24;10.30;99.90
23562;DHT22;11959;49.418;8.728;2023-04-01T06:26:34;10.40;99.90
23562;DHT22;11959;49.418;8.728;2023-04-01T06:29:05;10.40;99.90
23562;DHT22;11959;49.418;8.728;2023-04-01T06:40:05;10.50;99.90
23562;DHT22;11959;49.418;8.728;2023-04-01T06:48:22;10.50;99.90
23562;DHT22;11959;49.418;8.728;2023-04-01T06:53:35;10.40;99.90
23562;DHT22;11959;49.418;8.728;2023-04-01T06:56:15;10.40;99.90
23562;DHT22;11959;49.418;8.728;2023-04-01T06:58:48;10.40;99.90
23562;DHT22;11959;49.418;8.728;2023-04-01T07:01:29;10.40;99.90
23562;DHT22;11959;49.418;8.728;2023-04-01T07:04:00;10.30;99.90
23562;DHT22;11959;49.418;8.728;2023-04-01T07:06:35;10.30;99.90
23562;DHT22;11959;49.418;8.728;2023-04-01T07:09:10;10.30;99.90
23562;DHT22;11959;49.418;8.728;2023-04-01T07:11:38;10.20;99.90
23562;DHT22;11959;49.418;8.728;2023-04-01T07:14:24;10.20;99.90
23562;DHT22;11959;49.418;8.728;2023-04-01T07:16:56;10.20;99.90
23562;DHT22;11959;49.418;8.728;2023-04-01T07:19:29;10.10;99.90
23562;DHT22;11959;49.418;8.728;2023-04-01T07:22:21;10.20;99.90
23562;DHT22;11959;49.418;8.728;2023-04-01T07:24:50;10.10;99.90
23562;DHT22;11959;49.418;8.728;2023-04-01T07:27:16;10.10;99.90
23562;DHT22;11959;49.418;8.728;2023-04-01T07:29:42;10.10;99.90
23562;DHT22;11959;49.418;8.728;2023-04-01T07:40:45;10.20;99.90
23562;DHT22;11959;49.418;8.728;2023-04-01T07:48:58;10.00;99.90
23562;DHT22;11959;49.418;8.728;2023-04-01T07:54:18;10.00;99.90
23562;DHT22;11959;49.418;8.728;2023-04-01T08:05:33;10.00;99.90
23562;DHT22;11959;49.418;8.728;2023-04-01T08:08:26;10.00;99.90
23562;DHT22;11959;49.418;8.728;2023-04-01T08:11:06;9.90;99.90
23562;DHT22;11959;49.418;8.728;2023-04-01T08:16:37;10.00;99.90
23562;DHT22;11959;49.418;8.728;2023-04-01T08:22:09;10.00;99.90
23562;DHT22;11959;49.418;8.728;2023-04-01T08:24:44;10.00;99.90
23562;DHT22;11959;49.418;8.728;2023-04-01T08:32:38;10.10;99.90
23562;DHT22;11959;49.418;8.728;2023-04-01T08:35:18;10.10;99.90
23562;DHT22;11959;49.418;8.728;2023-04-01T08:37:45;10.10;99.90
23562;DHT22;11959;49.418;8.728;2023-04-01T08:44:09;10.10;99.90
23562;DHT22;11959;49.418;8.728;2023-04-01T08:54:44;10.10;99.90
23562;DHT22;11959;49.418;8.728;2023-04-01T09:11:15;10.00;99.90
23562;DHT22;11959;49.418;8.728;2023-04-01T09:20:05;9.90;99.90
23562;DHT22;11959;49.418;8.728;2023-04-01T09:36:43;10.10;99.90
23562;DHT22;11959;49.418;8.728;2023-04-01T09:44:37;10.10;99.90
23562;DHT22;11959;49.418;8.728;2023-04-01T09:49:55;10.00;99.90
23562;DHT22;11959;49.418;8.728;2023-04-01T09:52:47;10.00;99.90
23562;DHT22;11959;49.418;8.728;2023-04-01T10:10:15;10.10;99.90
23562;DHT22;11959;49.418;8.728;2023-04-01T10:18:29;10.10;99.90
23562;DHT22;11959;49.418;8.728;2023-04-01T10:32:18;10.20;99.90
23562;DHT22;11959;49.418;8.728;2023-04-01T10:48:17;10.30;99.90
23562;DHT22;11959;49.418;8.728;2023-04-01T11:30:26;10.40;99.90
23562;DHT22;11959;49.418;8.728;2023-04-01T11:33:19;10.40;99.90
23562;DHT22;11959;49.418;8.728;2023-04-01T11:42:24;10.30;99.90
23562;DHT22;11959;49.418;8.728;2023-04-01T11:44:30;10.30;99.90
23562;DHT22;11959;49.418;8.728;2023-04-01T12:04:18;10.50;99.90
23562;DHT22;11959;49.418;8.728;2023-04-01T12:07:11;10.50;99.90
23562;DHT22;11959;49.418;8.728;2023-04-01T12:14:59;10.40;99.90
23562;DHT22;11959;49.418;8.728;2023-04-01T12:20:32;10.50;99.90
23562;DHT22;11959;49.418;8.728;2023-04-01T12:23:05;10.50;99.90
23562;DHT22;11959;49.418;8.728;2023-04-01T12:25:44;10.50;99.90
23562;DHT22;11959;49.418;8.728;2023-04-01T12:28:28;10.60;99.90
23562;DHT22;11959;49.418;8.728;2023-04-01T12:41:52;10.60;99.90
23562;DHT22;11959;49.418;8.728;2023-04-01T12:44:37;10.60;99.90
23562;DHT22;11959;49.418;8.728;2023-04-01T12:50:16;10.70;99.90
23562;DHT22;11959;49.418;8.728;2023-04-01T12:55:39;10.60;99.90
23562;DHT22;11959;49.418;8.728;2023-04-01T13:00:54;10.70;99.90
23562;DHT22;11959;49.418;8.728;2023-04-01T13:16:54;10.70;99.90
23562;DHT22;11959;49.418;8.728;2023-04-01T13:22:18;10.80;99.90
23562;DHT22;11959;49.418;8.728;2023-04-01T13:25:06;10.80;99.90
23562;DHT22;11959;49.418;8.728;2023-04-01T13:27:45;10.80;99.90
23562;DHT22;11959;49.418;8.728;2023-04-01T13:30:30;10.80;99.90
23562;DHT22;11959;49.418;8.728;2023-04-01T13:46:39;10.90;99.90
23562;DHT22;11959;49.418;8.728;2023-04-01T13:57:52;11.00;99.90
23562;DHT22;11959;49.418;8.728;2023-04-01T14:09:30;11.10;99.90
23562;DHT22;11959;49.418;8.728;2023-04-01T14:12:13;11.10;99.90
23562;DHT22;11959;49.418;8.728;2023-04-01T14:22:49;11.10;99.90
23562;DHT22;11959;49.418;8.728;2023-04-01T14:25:41;11.10;99.90
23562;DHT22;11959;49.418;8.728;2023-04-01T14:34:05;11.10;99.90
23562;DHT22;11959;49.418;8.728;2023-04-01T14:36:47;11.10;99.90
23562;DHT22;11959;49.418;8.728;2023-04-01T14:39:43;11.10;99.90
23562;DHT22;11959;49.418;8.728;2023-04-01T14:42:23;11.10;99.90
23562;DHT22;11959;49.418;8.728;2023-04-01T14:47:46;11.10;99.90
23562;DHT22;11959;49.418;8.728;2023-04-01T14:50:15;11.10;99.90
23562;DHT22;11959;49.418;8.728;2023-04-01T14:55:32;11.10;99.90
23562;DHT22;11959;49.418;8.728;2023-04-01T14:58:12;11.10;99.90
23562;DHT22;11959;49.418;8.728;2023-04-01T15:04:32;11.10;99.90
23562;DHT22;11959;49.418;8.728;2023-04-01T15:09:45;11.10;99.90
23562;DHT22;11959;49.418;8.728;2023-04-01T15:12:32;11.20;99.90
23562;DHT22;11959;49.418;8.728;2023-04-01T15:18:07;11.20;99.90
23562;DHT22;11959;49.418;8.728;2023-04-01T15:39:10;11.20;99.90
23562;DHT22;11959;49.418;8.728;2023-04-01T15:53:30;10.90;99.90
23562;DHT22;11959;49.418;8.728;2023-04-01T15:55:59;10.90;99.90
23562;DHT22;11959;49.418;8.728;2023-04-01T15:58:38;10.90;99.90
23562;DHT22;11959;49.418;8.728;2023-04-01T16:07:10;10.80;99.90
23562;DHT22;11959;49.418;8.728;2023-04-01T16:09:39;10.80;99.90
23562;DHT22;11959;49.418;8.728;2023-04-01T16:20:25;10.80;99.90
23562;DHT22;11959;49.418;8.728;2023-04-01T16:23:10;10.80;99.90
23562;DHT22;11959;49.418;8.728;2023-04-01T16:25:44;10.80;99.90
23562;DHT22;11959;49.418;8.728;2023-04-01T16:28:31;10.80;99.90
23562;DHT22;11959;49.418;8.728;2023-04-01T16:31:46;10.80;99.90
23562;DHT22;11959;49.418;8.728;2023-04-01T16:34:17;10.90;99.90
23562;DHT22;11959;49.418;8.728;2023-04-01T16:47:40;10.90;99.90
23562;DHT22;11959;49.418;8.728;2023-04-01T16:50:15;10.90;99.90
23562;DHT22;11959;49.418;8.728;2023-04-01T16:53:10;10.90;99.90
23562;DHT22;11959;49.418;8.728;2023-04-01T16:58:37;10.90;99.90
23562;DHT22;11959;49.418;8.728;2023-04-01T17:03:44;10.90;99.90
23562;DHT22;11959;49.418;8.728;2023-04-01T17:06:31;10.90;99.90
23562;DHT22;11959;49.418;8.728;2023-04-01T17:09:33;10.90;99.90
23562;DHT22;11959;49.418;8.728;2023-04-01T17:12:19;10.90;99.90
23562;DHT22;11959;49.418;8.728;2023-04-01T17:17:55;10.90;99.90
23562;DHT22;11959;49.418;8.728;2023-04-01T17:36:42;10.80;99.90
23562;DHT22;11959;49.418;8.728;2023-04-01T17:39:36;10.80;99.90
23562;DHT22;11959;49.418;8.728;2023-04-01T17:45:05;10.70;99.90
23562;DHT22;11959;49.418;8.728;2023-04-01T17:47:49;10.70;99.90
23562;DHT22;11959;49.418;8.728;2023-04-01T17:50:21;10.60;99.90
23562;DHT22;11959;49.418;8.728;2023-04-01T17:58:33;10.50;99.90
23562;DHT22;11959;49.418;8.728;2023-04-01T18:01:43;10.40;99.90
23562;DHT22;11959;49.418;8.728;2023-04-01T18:13:12;10.30;99.90
23562;DHT22;11959;49.418;8.728;2023-04-01T18:17:57;10.30;99.90
23562;DHT22;11959;49.418;8.728;2023-04-01T18:20:51;10.30;99.90
23562;DHT22;11959;49.418;8.728;2023-04-01T18:25:48;10.30;99.90
23562;DHT22;11959;49.418;8.728;2023-04-01T18:33:48;10.30;99.90
23562;DHT22;11959;49.418;8.728;2023-04-01T18:36:24;10.30;99.90
23562;DHT22;11959;49.418;8.728;2023-04-01T18:38:56;10.20;99.90
23562;DHT22;11959;49.418;8.728;2023-04-01T18:47:32;10.20;99.90
23562;DHT22;11959;49.418;8.728;2023-04-01T18:50:28;10.20;99.90
23562;DHT22;11959;49.418;8.728;2023-04-01T18:53:22;10.20;99.90
23562;DHT22;11959;49.418;8.728;2023-04-01T18:55:59;10.20;99.90
23562;DHT22;11959;49.418;8.728;2023-04-01T18:58:35;10.20;99.90
23562;DHT22;11959;49.418;8.728;2023-04-01T19:01:35;10.20;99.90
23562;DHT22;11959;49.418;8.728;2023-04-01T19:10:07;10.00;99.90
23562;DHT22;11959;49.418;8.728;2023-04-01T19:21:37;10.00;99.90
23562;DHT22;11959;49.418;8.728;2023-04-01T19:24:11;10.00;99.90
23562;DHT22;11959;49.418;8.728;2023-04-01T19:26:52;10.00;99.90
23562;DHT22;11959;49.418;8.728;2023-04-01T19:32:16;10.00;99.90
23562;DHT22;11959;49.418;8.728;2023-04-01T19:46:24;9.90;99.90
23562;DHT22;11959;49.418;8.728;2023-04-01T19:59:34;9.80;99.90
23562;DHT22;11959;49.418;8.728;2023-04-01T20:04:51;9.80;99.90
23562;DHT22;11959;49.418;8.728;2023-04-01T20:07:51;9.80;99.90
23562;DHT22;11959;49.418;8.728;2023-04-01T20:10:24;9.80;99.90
23562;DHT22;11959;49.418;8.728;2023-04-01T20:13:12;9.80;99.90
23562;DHT22;11959;49.418;8.728;2023-04-01T20:15:44;9.80;99.90
23562;DHT22;11959;49.418;8.728;2023-04-01T20:18:21;9.80;99.90
23562;DHT22;11959;49.418;8.728;2023-04-01T20:21:05;9.80;99.90
23562;DHT22;11959;49.418;8.728;2023-04-01T20:23:52;9.80;99.90
23562;DHT22;11959;49.418;8.728;2023-04-01T20:26:36;9.70;99.90
23562;DHT22;11959;49.418;8.728;2023-04-01T20:45:33;9.70;99.90
23562;DHT22;11959;49.418;8.728;2023-04-01T20:48:24;9.60;99.90
23562;DHT22;11959;49.418;8.728;2023-04-01T21:24:37;9.60;99.90
23562;DHT22;11959;49.418;8.728;2023-04-01T21:35:53;9.60;99.90
23562;DHT22;11959;49.418;8.728;2023-04-01T22:01:05;9.60;99.90
23562;DHT22;11959;49.418;8.728;2023-04-01T22:06:45;9.50;99.90
23562;DHT22;11959;49.418;8.728;2023-04-01T22:09:33;9.60;99.90
23562;DHT22;11959;49.418;8.728;2023-04-01T22:14:52;9.60;99.90
23562;DHT22;11959;49.418;8.728;2023-04-01T22:26:09;9.60;99.90
23562;DHT22;11959;49.418;8.728;2023-04-01T22:28:48;9.50;99.90
23562;DHT22;11959;49.418;8.728;2023-04-01T22:31:30;9.60;99.90
23562;DHT22;11959;49.418;8.728;2023-04-01T22:40:16;9.50;99.90
23562;DHT22;11959;49.418;8.728;2023-04-01T22:47:49;9.50;99.90
23562;DHT22;11959;49.418;8.728;2023-04-01T22:50:18;9.50;99.90
23562;DHT22;11959;49.418;8.728;2023-04-01T22:52:47;9.60;99.90
23562;DHT22;11959;49.418;8.728;2023-04-01T22:55:22;9.50;99.90
23562;DHT22;11959;49.418;8.728;2023-04-01T22:57:58;9.50;99.90
23562;DHT22;11959;49.418;8.728;2023-04-01T23:00:32;9.50;99.90
23562;DHT22;11959;49.418;8.728;2023-04-01T23:03:30;9.50;99.90
23562;DHT22;11959;49.418;8.728;2023-04-01T23:06:01;9.50;99.90
23562;DHT22;11959;49.418;8.728;2023-04-01T23:10:56;9.60;99.90
23562;DHT22;11959;49.418;8.728;2023-04-01T23:13:37;9.50;99.90
23562;DHT22;11959;49.418;8.728;2023-04-01T23:16:05;9.50;99.90
23562;DHT22;11959;49.418;8.728;2023-04-01T23:21:54;9.50;99.90
23562;DHT22;11959;49.418;8.728;2023-04-01T23:24:35;9.50;99.90
23562;DHT22;11959;49.418;8.728;2023-04-01T23:29:36;9.50;99.90
23562;DHT22;11959;49.418;8.728;2023-04-01T23:32:05;9.50;99.90
23562;DHT22;11959;49.418;8.728;2023-04-01T23:34:38;9.50;99.90
23562;DHT22;11959;49.418;8.728;2023-04-01T23:37:08;9.50;99.90
23562;DHT22;11959;49.418;8.728;2023-04-01T23:39:40;9.50;99.90
23562;DHT22;11959;49.418;8.728;2023-04-01T23:42:25;9.40;99.90
23562;DHT22;11959;49.418;8.728;2023-04-01T23:45:05;9.40;99.90
23562;DHT22;11959;49.418;8.728;2023-04-01T23:47:39;9.40;99.90
23562;DHT22;11959;49.418;8.728;2023-04-01T23:50:20;9.40;99.90
23562;DHT22;11959;49.418;8.728;2023-04-01T23:53:01;9.40;99.90
23562;DHT22;11959;49.418;8.728;2023-04-01T23:55:31;9.40;99.90
23562;DHT22;11959;49.418;8.728;2023-04-01T23:58:18;9.40;99.90
